sensor_id;sensor_type;location;lat;lon;timestamp;pressure;altitude;pressure_sealevel;temperature;humidity
29825;BME280;16713;52.916;12.834;2022-12-07T00:01:55;100686.94;;;3.50;73.09
29825;BME280;16713;52.916;12.834;2022-12-07T00:04:22;100684.84;;;3.47;73.11
29825;BME280;16713;52.916;12.834;2022-12-07T00:06:51;100680.25;;;3.56;73.51
29825;BME280;16713;52.916;12.834;2022-12-07T00:09:18;100678.28;;;3.48;73.28
29825;BME280;16713;52.916;12.834;2022-12-07T00:11:48;100672.69;;;3.44;73.93
29825;BME280;16713;52.916;12.834;2022-12-07T00:14:16;100662.13;;;3.21;74.79
29825;BME280;16713;52.916;12.834;2022-12-07T00:16:43;100666.72;;;3.34;74.18
29825;BME280;16713;52.916;12.834;2022-12-07T00:19:11;100656.72;;;3.21;73.37
29825;BME280;16713;52.916;12.834;2022-12-07T00:21:38;100652.22;;;3.38;74.03
29825;BME280;16713;52.916;12.834;2022-12-07T00:24:05;100659.34;;;3.12;74.39
29825;BME280;16713;52.916;12.834;2022-12-07T00:26:34;100653.91;;;3.26;73.70
29825;BME280;16713;52.916;12.834;2022-12-07T00:29:04;100651.41;;;3.16;74.97
29825;BME280;16713;52.916;12.834;2022-12-07T00:31:34;100653.50;;;3.19;73.52
29825;BME280;16713;52.916;12.834;2022-12-07T00:34:02;100651.94;;;3.04;75.19
29825;BME280;16713;52.916;12.834;2022-12-07T00:36:28;100654.72;;;3.26;74.26
29825;BME280;16713;52.916;12.834;2022-12-07T00:38:55;100646.06;;;3.24;73.85
29825;BME280;16713;52.916;12.834;2022-12-07T00:41:25;100646.56;;;3.26;73.54
29825;BME280;16713;52.916;12.834;2022-12-07T00:43:51;100639.47;;;3.17;73.98
29825;BME280;16713;52.916;12.834;2022-12-07T00:46:19;100638.59;;;3.30;73.70
29825;BME280;16713;52.916;12.834;2022-12-07T00:48:47;100639.97;;;3.19;74.24
29825;BME280;16713;52.916;12.834;2022-12-07T00:51:15;100638.22;;;3.01;75.02
29825;BME280;16713;52.916;12.834;2022-12-07T00:53:42;100639.47;;;3.17;74.72
29825;BME280;16713;52.916;12.834;2022-12-07T00:56:11;100641.19;;;3.13;74.50
29825;BME280;16713;52.916;12.834;2022-12-07T00:58:38;100629.34;;;3.09;73.87
29825;BME280;16713;52.916;12.834;2022-12-07T01:01:06;100627.81;;;2.94;74.79
29825;BME280;16713;52.916;12.834;2022-12-07T01:03:33;100621.69;;;3.02;74.94
29825;BME280;16713;52.916;12.834;2022-12-07T01:06:00;100608.28;;;2.84;74.49
29825;BME280;16713;52.916;12.834;2022-12-07T01:08:27;100621.19;;;2.87;75.75
29825;BME280;16713;52.916;12.834;2022-12-07T01:11:03;100605.88;;;2.82;75.21
29825;BME280;16713;52.916;12.834;2022-12-07T01:13:30;100606.28;;;2.76;74.65
29825;BME280;16713;52.916;12.834;2022-12-07T01:15:59;100604.69;;;2.75;75.81
29825;BME280;16713;52.916;12.834;2022-12-07T01:18:27;100596.19;;;2.68;75.87
29825;BME280;16713;52.916;12.834;2022-12-07T01:21:02;100610.13;;;2.61;76.59
29825;BME280;16713;52.916;12.834;2022-12-07T01:23:29;100611.50;;;2.86;75.30
29825;BME280;16713;52.916;12.834;2022-12-07T01:25:57;100602.00;;;2.75;74.89
29825;BME280;16713;52.916;12.834;2022-12-07T01:28:24;100594.09;;;2.65;77.00
29825;BME280;16713;52.916;12.834;2022-12-07T01:31:12;100587.13;;;2.72;76.17
29825;BME280;16713;52.916;12.834;2022-12-07T01:33:43;100584.31;;;2.77;76.18
29825;BME280;16713;52.916;12.834;2022-12-07T01:36:16;100582.84;;;2.71;75.61
29825;BME280;16713;52.916;12.834;2022-12-07T01:38:44;100588.72;;;2.87;76.29
29825;BME280;16713;52.916;12.834;2022-12-07T01:41:12;100585.16;;;3.00;75.43
29825;BME280;16713;52.916;12.834;2022-12-07T01:46:37;100574.84;;;2.66;76.39
29825;BME280;16713;52.916;12.834;2022-12-07T01:49:06;100574.44;;;2.59;76.29
29825;BME280;16713;52.916;12.834;2022-12-07T01:51:34;100575.34;;;2.68;75.08
29825;BME280;16713;52.916;12.834;2022-12-07T01:54:03;100573.41;;;2.69;75.63
29825;BME280;16713;52.916;12.834;2022-12-07T01:56:31;100575.03;;;2.70;74.94
29825;BME280;16713;52.916;12.834;2022-12-07T01:58:59;100579.22;;;2.76;76.78
29825;BME280;16713;52.916;12.834;2022-12-07T02:01:26;100561.09;;;2.63;76.50
29825;BME280;16713;52.916;12.834;2022-12-07T02:03:53;100554.97;;;2.71;76.25
29825;BME280;16713;52.916;12.834;2022-12-07T02:06:22;100554.97;;;2.71;75.08
29825;BME280;16713;52.916;12.834;2022-12-07T02:08:50;100545.88;;;2.67;75.30
29825;BME280;16713;52.916;12.834;2022-12-07T02:11:17;100537.75;;;2.67;75.51
29825;BME280;16713;52.916;12.834;2022-12-07T02:13:45;100535.50;;;2.69;75.02
29825;BME280;16713;52.916;12.834;2022-12-07T02:23:50;100516.38;;;2.65;75.82
29825;BME280;16713;52.916;12.834;2022-12-07T02:29:20;100515.06;;;2.63;75.81
29825;BME280;16713;52.916;12.834;2022-12-07T02:32:13;100503.16;;;2.64;76.15
29825;BME280;16713;52.916;12.834;2022-12-07T02:37:25;100490.97;;;2.75;76.76
29825;BME280;16713;52.916;12.834;2022-12-07T02:39:57;100488.09;;;2.71;76.08
29825;BME280;16713;52.916;12.834;2022-12-07T02:42:34;100479.66;;;2.73;77.14
29825;BME280;16713;52.916;12.834;2022-12-07T02:45:03;100479.28;;;2.66;77.47
29825;BME280;16713;52.916;12.834;2022-12-07T02:47:31;100472.69;;;2.58;75.74
29825;BME280;16713;52.916;12.834;2022-12-07T02:50:00;100471.88;;;2.58;76.44
29825;BME280;16713;52.916;12.834;2022-12-07T02:52:28;100462.69;;;2.59;77.76
29825;BME280;16713;52.916;12.834;2022-12-07T02:54:55;100470.38;;;2.65;77.04
29825;BME280;16713;52.916;12.834;2022-12-07T03:00:18;100468.94;;;2.68;76.65
29825;BME280;16713;52.916;12.834;2022-12-07T03:03:00;100463.34;;;2.64;77.98
29825;BME280;16713;52.916;12.834;2022-12-07T03:08:29;100448.53;;;2.62;77.21
29825;BME280;16713;52.916;12.834;2022-12-07T03:11:00;100444.69;;;2.63;77.72
29825;BME280;16713;52.916;12.834;2022-12-07T03:16:20;100437.31;;;2.55;77.56
29825;BME280;16713;52.916;12.834;2022-12-07T03:18:55;100432.13;;;2.45;78.19
29825;BME280;16713;52.916;12.834;2022-12-07T03:21:25;100434.41;;;2.51;78.42
29825;BME280;16713;52.916;12.834;2022-12-07T03:23:58;100426.59;;;2.50;78.91
29825;BME280;16713;52.916;12.834;2022-12-07T03:26:33;100427.78;;;2.57;79.61
29825;BME280;16713;52.916;12.834;2022-12-07T03:29:06;100423.41;;;2.70;79.23
29825;BME280;16713;52.916;12.834;2022-12-07T03:31:38;100418.94;;;2.65;79.57
29825;BME280;16713;52.916;12.834;2022-12-07T03:37:12;100409.06;;;2.69;79.79
29825;BME280;16713;52.916;12.834;2022-12-07T03:40:02;100401.63;;;2.75;79.13
29825;BME280;16713;52.916;12.834;2022-12-07T03:42:31;100397.06;;;2.84;79.33
29825;BME280;16713;52.916;12.834;2022-12-07T03:44:59;100402.41;;;2.75;80.33
29825;BME280;16713;52.916;12.834;2022-12-07T03:47:32;100399.88;;;2.79;79.83
29825;BME280;16713;52.916;12.834;2022-12-07T03:50:14;100393.72;;;2.87;79.64
29825;BME280;16713;52.916;12.834;2022-12-07T03:52:47;100391.81;;;2.87;80.53
29825;BME280;16713;52.916;12.834;2022-12-07T03:55:24;100382.69;;;2.75;79.95
29825;BME280;16713;52.916;12.834;2022-12-07T03:57:55;100372.38;;;2.85;80.68
29825;BME280;16713;52.916;12.834;2022-12-07T04:00:22;100373.88;;;2.69;80.58
29825;BME280;16713;52.916;12.834;2022-12-07T04:02:52;100366.63;;;2.78;80.32
29825;BME280;16713;52.916;12.834;2022-12-07T04:05:19;100360.72;;;2.85;81.15
29825;BME280;16713;52.916;12.834;2022-12-07T04:07:45;100357.13;;;2.98;80.63
29825;BME280;16713;52.916;12.834;2022-12-07T04:10:12;100353.28;;;2.90;79.69
29825;BME280;16713;52.916;12.834;2022-12-07T04:12:39;100354.41;;;2.98;79.85
29825;BME280;16713;52.916;12.834;2022-12-07T04:15:06;100349.81;;;2.98;80.85
29825;BME280;16713;52.916;12.834;2022-12-07T04:17:33;100348.53;;;3.04;80.04
29825;BME280;16713;52.916;12.834;2022-12-07T04:19:59;100337.25;;;3.02;80.74
29825;BME280;16713;52.916;12.834;2022-12-07T04:22:26;100341.72;;;3.07;80.18
29825;BME280;16713;52.916;12.834;2022-12-07T04:24:53;100338.88;;;3.12;79.87
29825;BME280;16713;52.916;12.834;2022-12-07T04:27:19;100338.88;;;3.20;79.43
29825;BME280;16713;52.916;12.834;2022-12-07T04:29:46;100340.63;;;3.25;79.87
29825;BME280;16713;52.916;12.834;2022-12-07T04:32:12;100337.66;;;3.35;79.58
29825;BME280;16713;52.916;12.834;2022-12-07T04:34:38;100338.88;;;3.20;80.57
29825;BME280;16713;52.916;12.834;2022-12-07T04:37:05;100330.00;;;3.37;79.55
29825;BME280;16713;52.916;12.834;2022-12-07T04:39:33;100327.72;;;3.22;81.48
29825;BME280;16713;52.916;12.834;2022-12-07T04:42:00;100329.66;;;3.30;80.74
29825;BME280;16713;52.916;12.834;2022-12-07T04:44:27;100317.03;;;3.17;80.59
29825;BME280;16713;52.916;12.834;2022-12-07T04:46:54;100319.91;;;3.20;80.71
29825;BME280;16713;52.916;12.834;2022-12-07T04:49:21;100315.78;;;3.31;81.40
29825;BME280;16713;52.916;12.834;2022-12-07T04:51:47;100315.78;;;3.31;81.75
29825;BME280;16713;52.916;12.834;2022-12-07T04:54:15;100307.97;;;3.21;80.64
29825;BME280;16713;52.916;12.834;2022-12-07T04:56:43;100315.78;;;3.31;80.67
29825;BME280;16713;52.916;12.834;2022-12-07T04:59:15;100314.38;;;3.34;80.88
29825;BME280;16713;52.916;12.834;2022-12-07T05:01:42;100304.81;;;3.36;81.02
29825;BME280;16713;52.916;12.834;2022-12-07T05:04:09;100308.97;;;3.34;79.94
29825;BME280;16713;52.916;12.834;2022-12-07T05:06:35;100296.84;;;3.40;81.17
29825;BME280;16713;52.916;12.834;2022-12-07T05:09:03;100296.53;;;3.41;80.79
29825;BME280;16713;52.916;12.834;2022-12-07T05:11:30;100292.53;;;3.47;80.63
29825;BME280;16713;52.916;12.834;2022-12-07T05:14:19;100290.16;;;3.46;80.42
29825;BME280;16713;52.916;12.834;2022-12-07T05:16:48;100292.25;;;3.58;81.59
29825;BME280;16713;52.916;12.834;2022-12-07T05:19:17;100289.06;;;3.47;80.26
29825;BME280;16713;52.916;12.834;2022-12-07T05:21:44;100287.13;;;3.47;81.30
29825;BME280;16713;52.916;12.834;2022-12-07T05:24:12;100275.66;;;3.51;81.61
29825;BME280;16713;52.916;12.834;2022-12-07T05:26:39;100268.81;;;3.53;81.98
29825;BME280;16713;52.916;12.834;2022-12-07T05:29:06;100269.28;;;3.55;79.79
29825;BME280;16713;52.916;12.834;2022-12-07T05:31:32;100266.25;;;3.48;81.64
29825;BME280;16713;52.916;12.834;2022-12-07T05:34:00;100262.13;;;3.51;81.31
29825;BME280;16713;52.916;12.834;2022-12-07T05:36:26;100259.06;;;3.43;81.46
29825;BME280;16713;52.916;12.834;2022-12-07T05:38:54;100261.47;;;3.45;80.75
29825;BME280;16713;52.916;12.834;2022-12-07T05:41:21;100261.94;;;3.73;81.82
29825;BME280;16713;52.916;12.834;2022-12-07T05:44:06;100256.97;;;3.49;82.28
29825;BME280;16713;52.916;12.834;2022-12-07T05:46:32;100254.28;;;3.58;81.75
29825;BME280;16713;52.916;12.834;2022-12-07T05:48:59;100258.75;;;3.71;80.26
29825;BME280;16713;52.916;12.834;2022-12-07T05:51:26;100252.88;;;3.60;81.41
29825;BME280;16713;52.916;12.834;2022-12-07T05:53:52;100257.31;;;3.56;82.10
29825;BME280;16713;52.916;12.834;2022-12-07T05:56:19;100246.47;;;3.65;81.35
29825;BME280;16713;52.916;12.834;2022-12-07T05:58:46;100244.88;;;3.55;80.29
29825;BME280;16713;52.916;12.834;2022-12-07T06:01:30;100241.38;;;3.63;80.53
29825;BME280;16713;52.916;12.834;2022-12-07T06:03:57;100235.47;;;3.61;81.08
29825;BME280;16713;52.916;12.834;2022-12-07T06:06:23;100233.25;;;3.55;80.43
29825;BME280;16713;52.916;12.834;2022-12-07T06:08:50;100235.63;;;3.56;82.45
29825;BME280;16713;52.916;12.834;2022-12-07T06:11:17;100227.16;;;3.49;82.02
29825;BME280;16713;52.916;12.834;2022-12-07T06:14:02;100228.13;;;3.70;81.32
29825;BME280;16713;52.916;12.834;2022-12-07T06:16:28;100224.78;;;3.56;81.51
29825;BME280;16713;52.916;12.834;2022-12-07T06:18:55;100226.53;;;3.69;81.58
29825;BME280;16713;52.916;12.834;2022-12-07T06:21:21;100225.41;;;3.70;81.66
29825;BME280;16713;52.916;12.834;2022-12-07T06:23:48;100217.63;;;3.60;80.21
29825;BME280;16713;52.916;12.834;2022-12-07T06:26:14;100218.22;;;3.74;80.70
29825;BME280;16713;52.916;12.834;2022-12-07T06:28:40;100226.97;;;3.88;81.61
29825;BME280;16713;52.916;12.834;2022-12-07T06:31:07;100229.41;;;3.73;80.10
29825;BME280;16713;52.916;12.834;2022-12-07T06:33:39;100225.06;;;3.89;80.23
29825;BME280;16713;52.916;12.834;2022-12-07T06:36:06;100230.78;;;3.96;80.31
29825;BME280;16713;52.916;12.834;2022-12-07T06:38:33;100234.13;;;4.10;79.01
29825;BME280;16713;52.916;12.834;2022-12-07T06:40:59;100241.97;;;4.03;79.26
29825;BME280;16713;52.916;12.834;2022-12-07T06:43:26;100242.75;;;4.03;78.97
29825;BME280;16713;52.916;12.834;2022-12-07T06:45:53;100245.94;;;4.14;77.55
29825;BME280;16713;52.916;12.834;2022-12-07T06:48:20;100242.88;;;4.15;77.68
29825;BME280;16713;52.916;12.834;2022-12-07T06:50:47;100244.69;;;4.03;77.47
29825;BME280;16713;52.916;12.834;2022-12-07T06:53:20;100245.66;;;3.98;77.71
29825;BME280;16713;52.916;12.834;2022-12-07T06:55:47;100251.34;;;4.05;76.78
29825;BME280;16713;52.916;12.834;2022-12-07T06:58:13;100254.41;;;4.04;76.98
29825;BME280;16713;52.916;12.834;2022-12-07T07:00:39;100253.13;;;4.01;77.03
29825;BME280;16713;52.916;12.834;2022-12-07T07:03:06;100263.03;;;4.06;75.79
29825;BME280;16713;52.916;12.834;2022-12-07T07:05:33;100259.84;;;3.95;76.89
29825;BME280;16713;52.916;12.834;2022-12-07T07:07:59;100268.16;;;3.90;75.61
29825;BME280;16713;52.916;12.834;2022-12-07T07:10:46;100258.88;;;3.91;75.75
29825;BME280;16713;52.916;12.834;2022-12-07T07:13:12;100276.44;;;4.02;76.42
29825;BME280;16713;52.916;12.834;2022-12-07T07:15:39;100270.88;;;3.90;76.69
29825;BME280;16713;52.916;12.834;2022-12-07T07:18:05;100277.56;;;4.01;76.30
29825;BME280;16713;52.916;12.834;2022-12-07T07:20:33;100270.53;;;3.92;77.07
29825;BME280;16713;52.916;12.834;2022-12-07T07:22:59;100273.38;;;4.12;76.12
29825;BME280;16713;52.916;12.834;2022-12-07T07:25:26;100282.81;;;4.06;76.46
29825;BME280;16713;52.916;12.834;2022-12-07T07:27:52;100271.34;;;3.92;76.66
29825;BME280;16713;52.916;12.834;2022-12-07T07:30:19;100279.78;;;3.99;76.31
29825;BME280;16713;52.916;12.834;2022-12-07T07:32:45;100284.72;;;4.14;75.89
29825;BME280;16713;52.916;12.834;2022-12-07T07:35:12;100275.81;;;3.97;76.15
29825;BME280;16713;52.916;12.834;2022-12-07T07:37:40;100287.75;;;3.96;76.54
29825;BME280;16713;52.916;12.834;2022-12-07T07:40:08;100285.84;;;3.96;76.43
29825;BME280;16713;52.916;12.834;2022-12-07T07:42:35;100287.75;;;4.04;76.39
29825;BME280;16713;52.916;12.834;2022-12-07T07:45:01;100282.19;;;4.01;76.62
29825;BME280;16713;52.916;12.834;2022-12-07T07:47:28;100288.25;;;3.98;76.46
29825;BME280;16713;52.916;12.834;2022-12-07T07:49:55;100294.13;;;4.17;76.87
29825;BME280;16713;52.916;12.834;2022-12-07T07:52:21;100291.13;;;4.10;75.28
29825;BME280;16713;52.916;12.834;2022-12-07T07:54:47;100291.13;;;4.01;75.06
29825;BME280;16713;52.916;12.834;2022-12-07T07:57:16;100295.75;;;4.09;76.21
29825;BME280;16713;52.916;12.834;2022-12-07T07:59:42;100295.75;;;4.18;75.51
29825;BME280;16713;52.916;12.834;2022-12-07T08:02:14;100309.34;;;3.92;75.22
29825;BME280;16713;52.916;12.834;2022-12-07T08:04:41;100308.34;;;4.05;75.57
29825;BME280;16713;52.916;12.834;2022-12-07T08:07:07;100315.38;;;4.15;75.52
29825;BME280;16713;52.916;12.834;2022-12-07T08:09:34;100310.56;;;4.12;75.53
29825;BME280;16713;52.916;12.834;2022-12-07T08:12:00;100311.22;;;4.17;76.27
29825;BME280;16713;52.916;12.834;2022-12-07T08:14:27;100302.44;;;4.12;75.04
29825;BME280;16713;52.916;12.834;2022-12-07T08:16:54;100317.28;;;3.97;76.35
29825;BME280;16713;52.916;12.834;2022-12-07T08:19:21;100311.53;;;4.07;76.33
29825;BME280;16713;52.916;12.834;2022-12-07T08:21:47;100316.16;;;4.15;75.57
29825;BME280;16713;52.916;12.834;2022-12-07T08:24:14;100314.41;;;4.02;76.11
29825;BME280;16713;52.916;12.834;2022-12-07T08:26:41;100325.91;;;4.16;76.15
29825;BME280;16713;52.916;12.834;2022-12-07T08:29:08;100316.78;;;4.04;75.11
29825;BME280;16713;52.916;12.834;2022-12-07T08:31:34;100323.19;;;4.08;75.28
29825;BME280;16713;52.916;12.834;2022-12-07T08:34:01;100319.53;;;3.95;75.13
29825;BME280;16713;52.916;12.834;2022-12-07T08:36:27;100326.06;;;4.11;74.57
29825;BME280;16713;52.916;12.834;2022-12-07T08:38:54;100331.34;;;4.08;74.26
29825;BME280;16713;52.916;12.834;2022-12-07T08:41:40;100335.19;;;4.07;74.54
29825;BME280;16713;52.916;12.834;2022-12-07T08:44:06;100326.88;;;3.95;74.63
29825;BME280;16713;52.916;12.834;2022-12-07T08:46:44;100337.41;;;3.96;74.70
29825;BME280;16713;52.916;12.834;2022-12-07T08:49:37;100334.84;;;3.91;73.81
29825;BME280;16713;52.916;12.834;2022-12-07T08:52:05;100348.09;;;4.01;73.45
29825;BME280;16713;52.916;12.834;2022-12-07T08:54:33;100346.34;;;3.97;73.90
29825;BME280;16713;52.916;12.834;2022-12-07T08:57:02;100349.69;;;3.94;73.08
29825;BME280;16713;52.916;12.834;2022-12-07T08:59:29;100351.59;;;3.85;73.08
29825;BME280;16713;52.916;12.834;2022-12-07T09:01:56;100357.97;;;3.97;72.81
29825;BME280;16713;52.916;12.834;2022-12-07T09:04:22;100358.47;;;3.99;73.82
29825;BME280;16713;52.916;12.834;2022-12-07T09:06:49;100369.34;;;3.91;73.58
29825;BME280;16713;52.916;12.834;2022-12-07T09:09:15;100365.66;;;3.87;72.71
29825;BME280;16713;52.916;12.834;2022-12-07T09:11:42;100369.47;;;3.77;72.53
29825;BME280;16713;52.916;12.834;2022-12-07T09:14:08;100369.81;;;3.84;72.24
29825;BME280;16713;52.916;12.834;2022-12-07T09:16:35;100370.75;;;3.88;72.46
29825;BME280;16713;52.916;12.834;2022-12-07T09:19:02;100369.63;;;3.89;72.59
29825;BME280;16713;52.916;12.834;2022-12-07T09:21:28;100377.16;;;3.92;72.28
29825;BME280;16713;52.916;12.834;2022-12-07T09:23:55;100370.28;;;4.03;71.59
29825;BME280;16713;52.916;12.834;2022-12-07T09:26:21;100377.13;;;4.01;72.41
29825;BME280;16713;52.916;12.834;2022-12-07T09:28:48;100379.38;;;3.99;71.82
29825;BME280;16713;52.916;12.834;2022-12-07T09:31:14;100380.31;;;3.94;71.74
29825;BME280;16713;52.916;12.834;2022-12-07T09:33:58;100382.91;;;3.91;72.20
29825;BME280;16713;52.916;12.834;2022-12-07T09:36:26;100376.97;;;3.89;72.44
29825;BME280;16713;52.916;12.834;2022-12-07T09:38:53;100376.81;;;3.94;71.80
29825;BME280;16713;52.916;12.834;2022-12-07T09:41:20;100382.25;;;4.02;71.77
29825;BME280;16713;52.916;12.834;2022-12-07T09:43:47;100374.59;;;3.87;72.40
29825;BME280;16713;52.916;12.834;2022-12-07T09:46:15;100368.19;;;3.92;71.29
29825;BME280;16713;52.916;12.834;2022-12-07T09:48:44;100369.31;;;3.82;71.01
29825;BME280;16713;52.916;12.834;2022-12-07T09:51:20;100381.44;;;3.93;71.56
29825;BME280;16713;52.916;12.834;2022-12-07T09:53:52;100372.81;;;3.91;71.12
29825;BME280;16713;52.916;12.834;2022-12-07T09:56:20;100377.59;;;3.77;71.95
29825;BME280;16713;52.916;12.834;2022-12-07T09:58:47;100375.19;;;3.67;72.54
29825;BME280;16713;52.916;12.834;2022-12-07T10:01:19;100384.28;;;3.71;73.03
29825;BME280;16713;52.916;12.834;2022-12-07T10:03:55;100377.75;;;3.89;72.71
29825;BME280;16713;52.916;12.834;2022-12-07T10:06:25;100374.91;;;3.86;71.85
29825;BME280;16713;52.916;12.834;2022-12-07T10:08:51;100366.91;;;3.81;72.73
29825;BME280;16713;52.916;12.834;2022-12-07T10:11:18;100362.91;;;3.78;73.53
29825;BME280;16713;52.916;12.834;2022-12-07T10:13:49;100372.50;;;3.84;73.21
29825;BME280;16713;52.916;12.834;2022-12-07T10:16:39;100378.25;;;3.74;72.83
29825;BME280;16713;52.916;12.834;2022-12-07T10:19:24;100380.16;;;3.82;72.02
29825;BME280;16713;52.916;12.834;2022-12-07T10:24:34;100383.66;;;3.74;72.30
29825;BME280;16713;52.916;12.834;2022-12-07T10:27:00;100389.72;;;3.71;74.15
29825;BME280;16713;52.916;12.834;2022-12-07T10:29:37;100387.31;;;3.78;72.66
29825;BME280;16713;52.916;12.834;2022-12-07T10:34:41;100370.56;;;3.85;72.50
29825;BME280;16713;52.916;12.834;2022-12-07T10:39:45;100375.53;;;3.74;71.59
29825;BME280;16713;52.916;12.834;2022-12-07T10:42:18;100373.94;;;3.82;72.04
29825;BME280;16713;52.916;12.834;2022-12-07T10:44:46;100379.50;;;3.77;72.42
29825;BME280;16713;52.916;12.834;2022-12-07T10:50:29;100380.81;;;3.96;72.42
29825;BME280;16713;52.916;12.834;2022-12-07T10:57:02;100368.38;;;3.95;72.49
29825;BME280;16713;52.916;12.834;2022-12-07T11:07:45;100366.13;;;3.97;72.59
29825;BME280;16713;52.916;12.834;2022-12-07T11:10:33;100369.94;;;3.88;72.43
29825;BME280;16713;52.916;12.834;2022-12-07T11:13:25;100368.22;;;4.00;71.80
29825;BME280;16713;52.916;12.834;2022-12-07T11:16:14;100364.38;;;4.01;72.91
29825;BME280;16713;52.916;12.834;2022-12-07T11:24:47;100350.00;;;4.01;71.60
29825;BME280;16713;52.916;12.834;2022-12-07T11:27:25;100349.34;;;4.04;72.52
29825;BME280;16713;52.916;12.834;2022-12-07T11:30:20;100346.66;;;3.95;73.39
29825;BME280;16713;52.916;12.834;2022-12-07T11:33:27;100341.53;;;4.02;72.71
29825;BME280;16713;52.916;12.834;2022-12-07T11:36:17;100334.19;;;3.94;73.05
29825;BME280;16713;52.916;12.834;2022-12-07T11:38:56;100330.06;;;3.97;72.71
29825;BME280;16713;52.916;12.834;2022-12-07T11:41:28;100335.19;;;4.07;72.87
29825;BME280;16713;52.916;12.834;2022-12-07T11:44:00;100330.84;;;4.14;72.93
29825;BME280;16713;52.916;12.834;2022-12-07T11:49:26;100320.81;;;4.06;72.87
29825;BME280;16713;52.916;12.834;2022-12-07T11:51:59;100321.75;;;4.10;72.87
29825;BME280;16713;52.916;12.834;2022-12-07T11:54:35;100317.78;;;4.08;72.56
29825;BME280;16713;52.916;12.834;2022-12-07T11:57:17;100319.84;;;4.02;74.26
29825;BME280;16713;52.916;12.834;2022-12-07T11:59:50;100312.78;;;4.18;72.95
29825;BME280;16713;52.916;12.834;2022-12-07T12:02:32;100313.28;;;4.20;73.31
29825;BME280;16713;52.916;12.834;2022-12-07T12:07:42;100315.00;;;4.33;73.24
29825;BME280;16713;52.916;12.834;2022-12-07T12:11:10;100310.72;;;4.24;72.71
29825;BME280;16713;52.916;12.834;2022-12-07T12:17:32;100310.41;;;4.25;73.27
29825;BME280;16713;52.916;12.834;2022-12-07T12:28:27;100312.78;;;4.35;73.15
29825;BME280;16713;52.916;12.834;2022-12-07T12:31:17;100313.06;;;4.42;73.49
29825;BME280;16713;52.916;12.834;2022-12-07T12:33:57;100317.25;;;4.48;73.58
29825;BME280;16713;52.916;12.834;2022-12-07T12:41:55;100322.31;;;4.58;72.22
29825;BME280;16713;52.916;12.834;2022-12-07T12:46:53;100322.97;;;4.55;72.50
29825;BME280;16713;52.916;12.834;2022-12-07T12:51:58;100311.84;;;4.48;72.32
29825;BME280;16713;52.916;12.834;2022-12-07T12:54:29;100316.28;;;4.44;72.61
29825;BME280;16713;52.916;12.834;2022-12-07T12:57:25;100324.13;;;4.46;73.10
29825;BME280;16713;52.916;12.834;2022-12-07T13:15:38;100318.66;;;4.37;71.41
29825;BME280;16713;52.916;12.834;2022-12-07T13:23:23;100314.38;;;4.36;72.65
29825;BME280;16713;52.916;12.834;2022-12-07T13:31:31;100316.59;;;4.34;72.19
29825;BME280;16713;52.916;12.834;2022-12-07T13:33:58;100323.81;;;4.30;71.46
29825;BME280;16713;52.916;12.834;2022-12-07T13:36:26;100311.97;;;4.26;71.25
29825;BME280;16713;52.916;12.834;2022-12-07T13:38:58;100320.13;;;4.26;72.93
29825;BME280;16713;52.916;12.834;2022-12-07T13:41:29;100310.25;;;4.22;71.89
29825;BME280;16713;52.916;12.834;2022-12-07T13:44:08;100318.88;;;4.24;72.87
29825;BME280;16713;52.916;12.834;2022-12-07T13:49:29;100310.09;;;4.18;72.17
29825;BME280;16713;52.916;12.834;2022-12-07T13:55:14;100317.28;;;4.14;72.61
29825;BME280;16713;52.916;12.834;2022-12-07T13:57:42;100312.03;;;4.18;71.26
29825;BME280;16713;52.916;12.834;2022-12-07T14:00:16;100315.22;;;4.11;72.17
29825;BME280;16713;52.916;12.834;2022-12-07T14:03:02;100314.25;;;4.07;72.19
29825;BME280;16713;52.916;12.834;2022-12-07T14:05:34;100308.66;;;4.12;71.28
29825;BME280;16713;52.916;12.834;2022-12-07T14:08:03;100305.34;;;4.07;71.40
29825;BME280;16713;52.916;12.834;2022-12-07T14:13:00;100308.81;;;4.16;71.18
29825;BME280;16713;52.916;12.834;2022-12-07T14:15:32;100306.09;;;4.16;70.68
29825;BME280;16713;52.916;12.834;2022-12-07T14:18:01;100304.19;;;4.16;70.84
29825;BME280;16713;52.916;12.834;2022-12-07T14:22:57;100298.78;;;4.08;71.30
29825;BME280;16713;52.916;12.834;2022-12-07T14:25:25;100302.91;;;4.14;72.05
29825;BME280;16713;52.916;12.834;2022-12-07T14:27:56;100300.19;;;4.14;72.20
29825;BME280;16713;52.916;12.834;2022-12-07T14:30:26;100294.59;;;4.10;70.70
29825;BME280;16713;52.916;12.834;2022-12-07T14:32:58;100298.94;;;4.11;69.75
29825;BME280;16713;52.916;12.834;2022-12-07T14:35:25;100306.72;;;4.21;68.99
29825;BME280;16713;52.916;12.834;2022-12-07T14:37:52;100300.03;;;4.10;69.07
29825;BME280;16713;52.916;12.834;2022-12-07T14:40:24;100300.19;;;4.05;70.50
29825;BME280;16713;52.916;12.834;2022-12-07T14:42:54;100299.91;;;3.98;69.83
29825;BME280;16713;52.916;12.834;2022-12-07T14:45:23;100301.97;;;4.10;69.59
29825;BME280;16713;52.916;12.834;2022-12-07T14:47:50;100298.28;;;3.97;70.15
29825;BME280;16713;52.916;12.834;2022-12-07T14:50:39;100308.53;;;3.92;70.70
29825;BME280;16713;52.916;12.834;2022-12-07T14:53:34;100308.69;;;3.95;69.76
29825;BME280;16713;52.916;12.834;2022-12-07T14:56:03;100292.09;;;3.71;70.51
29825;BME280;16713;52.916;12.834;2022-12-07T14:58:31;100296.06;;;3.74;71.74
29825;BME280;16713;52.916;12.834;2022-12-07T15:00:59;100295.75;;;3.75;70.69
29825;BME280;16713;52.916;12.834;2022-12-07T15:03:26;100299.28;;;3.76;71.69
29825;BME280;16713;52.916;12.834;2022-12-07T15:05:52;100298.47;;;3.67;72.19
29825;BME280;16713;52.916;12.834;2022-12-07T15:08:19;100297.81;;;3.61;70.39
29825;BME280;16713;52.916;12.834;2022-12-07T15:10:46;100292.06;;;3.54;71.34